Time;durP1;ratioP1;P1;durP2;ratioP2;P2;SDS_P1;SDS_P2;PMS_P1;PMS_P2;Temp;Humidity;BMP_temperature;BMP_pressure;BME280_temperature;BME280_humidity;BME280_pressure;Samples;Min_cycle;Max_cycle;Signal;HPM_P1;HPM_P2
2021/05/29 00:01:07;;;;;;;3.80;2.50;;;12.70;99.90;;;;;;4993010;28;21101;-75
2021/05/29 00:03:34;;;;;;;4.53;2.40;;;12.70;99.90;;;;;;4992716;28;20206;-78
2021/05/29 00:06:01;;;;;;;4.17;2.27;;;12.70;99.90;;;;;;4992586;28;20244;-78
2021/05/29 00:08:27;;;;;;;4.30;2.23;;;12.60;99.90;;;;;;4992918;28;20206;-78
2021/05/29 00:10:57;;;;;;;3.63;2.00;;;12.60;99.90;;;;;;4992568;28;20297;-78
2021/05/29 00:13:24;;;;;;;4.60;2.40;;;12.60;99.90;;;;;;4996094;28;20209;-78
2021/05/29 00:15:52;;;;;;;5.60;2.43;;;12.60;99.90;;;;;;4996031;28;20216;-77
2021/05/29 00:18:18;;;;;;;5.80;2.60;;;12.60;99.90;;;;;;4996086;28;20681;-77
2021/05/29 00:20:45;;;;;;;4.63;2.53;;;12.60;99.90;;;;;;4996128;28;20210;-77
2021/05/29 00:23:12;;;;;;;3.53;2.50;;;12.50;99.90;;;;;;4996046;28;20206;-75
2021/05/29 00:25:41;;;;;;;4.83;2.53;;;12.60;99.90;;;;;;4996448;28;20284;-76
2021/05/29 00:28:09;;;;;;;3.97;2.30;;;12.50;99.90;;;;;;4995904;28;20238;-72
2021/05/29 00:30:36;;;;;;;4.27;2.63;;;12.50;99.90;;;;;;4995900;28;20207;-75
2021/05/29 00:33:03;;;;;;;5.03;2.77;;;12.50;99.90;;;;;;4995707;28;20305;-76
2021/05/29 00:35:30;;;;;;;4.33;2.80;;;12.60;99.90;;;;;;4996129;28;20202;-76
2021/05/29 00:37:56;;;;;;;3.97;2.43;;;12.50;99.90;;;;;;4995689;28;20226;-78
2021/05/29 00:40:22;;;;;;;6.20;2.20;;;12.50;99.90;;;;;;4995623;28;20295;-76
2021/05/29 00:42:49;;;;;;;3.20;2.03;;;12.60;99.90;;;;;;4995882;28;20213;-76
2021/05/29 00:45:16;;;;;;;3.57;2.10;;;12.60;99.90;;;;;;4995737;28;20234;-76
2021/05/29 00:47:43;;;;;;;3.40;2.00;;;12.70;99.90;;;;;;4995667;28;20736;-76
2021/05/29 00:50:12;;;;;;;6.10;3.07;;;12.80;99.90;;;;;;4995638;28;20202;-76
2021/05/29 00:52:40;;;;;;;3.73;2.03;;;12.80;99.90;;;;;;4995660;28;20332;-75
2021/05/29 00:55:09;;;;;;;5.47;2.87;;;12.80;99.90;;;;;;4995787;28;20393;-74
2021/05/29 00:57:39;;;;;;;4.97;2.60;;;12.80;99.90;;;;;;4995621;28;20313;-76
2021/05/29 01:00:07;;;;;;;4.33;2.53;;;12.80;99.90;;;;;;4995601;28;20584;-76
2021/05/29 01:02:34;;;;;;;6.10;2.60;;;12.80;99.90;;;;;;4995570;28;20305;-76
2021/05/29 01:05:01;;;;;;;5.60;2.50;;;12.80;99.90;;;;;;4995281;28;20238;-77
2021/05/29 01:07:27;;;;;;;5.10;2.53;;;12.80;99.90;;;;;;4995460;28;20649;-76
2021/05/29 01:09:53;;;;;;;3.80;2.33;;;12.80;99.90;;;;;;4995565;28;20297;-77
2021/05/29 01:12:20;;;;;;;4.70;2.27;;;12.90;99.90;;;;;;4995179;28;20210;-77
2021/05/29 01:14:52;;;;;;;3.67;2.60;;;12.90;99.90;;;;;;4995449;28;20210;-76
2021/05/29 01:17:18;;;;;;;6.27;2.73;;;12.90;99.90;;;;;;4994923;28;20237;-77
2021/05/29 01:19:45;;;;;;;5.20;2.30;;;13.00;99.90;;;;;;4995102;28;20210;-76
2021/05/29 01:22:13;;;;;;;6.40;2.47;;;13.00;99.90;;;;;;4995076;28;20681;-77
2021/05/29 01:24:40;;;;;;;4.00;2.30;;;13.00;99.90;;;;;;4994438;28;20233;-76
2021/05/29 01:27:07;;;;;;;4.10;2.03;;;13.00;99.90;;;;;;4994789;28;20218;-76
2021/05/29 01:29:34;;;;;;;4.57;2.47;;;13.00;99.90;;;;;;4994717;28;20210;-76
2021/05/29 01:32:04;;;;;;;5.20;2.40;;;12.90;99.90;;;;;;4994696;28;20225;-76
2021/05/29 01:34:33;;;;;;;4.87;2.37;;;13.00;99.90;;;;;;4994503;28;20736;-77
2021/05/29 01:37:02;;;;;;;4.43;2.67;;;12.80;99.90;;;;;;4994853;28;20227;-76
2021/05/29 01:39:30;;;;;;;4.40;2.23;;;12.90;99.90;;;;;;4994822;28;20207;-77
2021/05/29 01:41:57;;;;;;;8.10;3.30;;;13.00;99.90;;;;;;4994638;28;20216;-77
2021/05/29 01:44:24;;;;;;;5.53;2.90;;;13.20;99.90;;;;;;4994711;28;20657;-76
2021/05/29 01:46:50;;;;;;;5.03;2.30;;;13.30;99.90;;;;;;4994067;28;20248;-76
2021/05/29 01:49:17;;;;;;;6.97;3.50;;;13.10;99.90;;;;;;4994568;28;20210;-77
2021/05/29 01:51:44;;;;;;;4.93;3.00;;;13.10;99.90;;;;;;4994535;28;20565;-76
2021/05/29 01:54:13;;;;;;;5.07;2.93;;;13.00;99.90;;;;;;4994575;28;20577;-77
2021/05/29 01:56:40;;;;;;;7.57;2.97;;;13.10;99.90;;;;;;4994505;28;20241;-77
2021/05/29 01:59:07;;;;;;;5.00;2.40;;;13.10;99.90;;;;;;4994235;28;20301;-77
2021/05/29 02:01:34;;;;;;;5.43;3.03;;;13.10;99.90;;;;;;4994168;28;20245;-77
2021/05/29 02:04:00;;;;;;;5.13;2.67;;;13.10;99.90;;;;;;4994538;28;20257;-78
2021/05/29 02:06:26;;;;;;;8.47;2.93;;;13.10;99.90;;;;;;4994183;28;20609;-77
2021/05/29 02:08:53;;;;;;;5.17;2.67;;;13.20;99.90;;;;;;4994387;28;20217;-77
2021/05/29 02:11:19;;;;;;;6.33;2.63;;;13.30;99.90;;;;;;4994231;28;20212;-77
2021/05/29 02:13:46;;;;;;;6.07;2.70;;;13.30;99.90;;;;;;4993876;28;20297;-77
2021/05/29 02:16:13;;;;;;;6.10;2.77;;;13.20;99.90;;;;;;4994017;28;20257;-76
2021/05/29 02:18:41;;;;;;;4.57;2.57;;;13.20;99.90;;;;;;4994231;28;20213;-77
2021/05/29 02:21:09;;;;;;;4.80;2.47;;;13.20;99.90;;;;;;4994335;28;20207;-76
2021/05/29 02:23:37;;;;;;;4.90;2.73;;;13.10;99.90;;;;;;4995466;28;20210;-77
2021/05/29 02:26:05;;;;;;;4.83;2.23;;;12.90;99.90;;;;;;4994440;28;20234;-76
2021/05/29 02:28:33;;;;;;;4.53;2.77;;;12.80;99.90;;;;;;4994430;28;20210;-74
2021/05/29 02:31:00;;;;;;;5.17;2.53;;;12.70;99.90;;;;;;4994215;28;20206;-75
2021/05/29 02:33:27;;;;;;;5.50;3.00;;;12.60;99.90;;;;;;4994558;28;20214;-76
2021/05/29 02:35:54;;;;;;;3.87;2.37;;;12.50;99.90;;;;;;4993395;28;20292;-77
2021/05/29 02:38:21;;;;;;;5.47;2.77;;;12.50;99.90;;;;;;4994115;28;20206;-77
2021/05/29 02:40:48;;;;;;;4.23;2.67;;;12.40;99.90;;;;;;4993641;28;20206;-76
2021/05/29 02:43:14;;;;;;;4.83;2.80;;;12.30;99.90;;;;;;4994042;28;20206;-76
2021/05/29 02:45:40;;;;;;;4.67;2.47;;;12.20;99.90;;;;;;4993389;28;20743;-77
2021/05/29 02:48:09;;;;;;;4.63;2.43;;;12.20;99.90;;;;;;4993603;28;20237;-77
2021/05/29 02:50:36;;;;;;;3.97;2.33;;;11.90;99.90;;;;;;4993511;28;20233;-76
2021/05/29 02:53:03;;;;;;;4.93;2.73;;;11.90;99.90;;;;;;4993332;28;20260;-77
2021/05/29 02:55:29;;;;;;;3.83;2.40;;;11.90;99.90;;;;;;4993027;28;20217;-77
2021/05/29 02:57:57;;;;;;;7.80;2.60;;;11.80;99.90;;;;;;4993336;28;20227;-77
2021/05/29 03:00:25;;;;;;;5.43;2.80;;;11.80;99.90;;;;;;4993230;28;20272;-77
2021/05/29 03:02:52;;;;;;;4.90;2.47;;;11.80;99.90;;;;;;4993401;28;20210;-77
2021/05/29 03:05:19;;;;;;;4.70;2.60;;;11.70;99.90;;;;;;4993454;28;20234;-76
2021/05/29 03:07:47;;;;;;;4.63;2.60;;;11.60;99.90;;;;;;4993094;28;20313;-77
2021/05/29 03:10:14;;;;;;;4.97;2.30;;;11.70;99.90;;;;;;4993321;28;20206;-77
2021/05/29 03:12:41;;;;;;;4.63;2.30;;;11.70;99.90;;;;;;4993431;28;20660;-76
2021/05/29 03:15:10;;;;;;;4.63;2.77;;;11.60;99.90;;;;;;4993564;28;20216;-77
2021/05/29 03:17:36;;;;;;;7.27;2.57;;;11.70;99.90;;;;;;4993285;28;20226;-77
2021/05/29 03:20:04;;;;;;;4.83;2.30;;;11.60;99.90;;;;;;4993285;28;20206;-76
2021/05/29 03:22:31;;;;;;;3.97;2.30;;;11.50;99.90;;;;;;4993004;28;20678;-76
2021/05/29 03:24:58;;;;;;;3.87;2.23;;;11.50;99.90;;;;;;4993126;28;20212;-76
2021/05/29 03:27:25;;;;;;;3.93;2.57;;;11.50;99.90;;;;;;4993208;28;20226;-76
2021/05/29 03:29:52;;;;;;;5.63;2.57;;;11.30;99.90;;;;;;4993370;28;20272;-76
2021/05/29 03:32:18;;;;;;;4.93;2.53;;;11.30;99.90;;;;;;4993159;28;20672;-77
2021/05/29 03:34:45;;;;;;;2.73;2.00;;;11.30;99.90;;;;;;4993161;28;20334;-77
2021/05/29 03:37:11;;;;;;;3.43;2.10;;;11.30;99.90;;;;;;4993084;28;20316;-77
2021/05/29 03:39:39;;;;;;;7.00;2.30;;;11.20;99.90;;;;;;4993195;28;20199;-76
2021/05/29 03:42:07;;;;;;;5.57;2.40;;;11.10;99.90;;;;;;4993123;28;20211;-77
2021/05/29 03:44:34;;;;;;;4.80;2.47;;;11.10;99.90;;;;;;4993096;28;20216;-77
2021/05/29 03:47:01;;;;;;;4.13;2.23;;;11.00;99.90;;;;;;4993877;28;20242;-77
2021/05/29 03:49:28;;;;;;;5.20;2.57;;;11.00;99.90;;;;;;4996909;28;20209;-77
2021/05/29 03:51:54;;;;;;;3.73;2.33;;;11.00;99.90;;;;;;4996778;28;20213;-75
2021/05/29 03:54:20;;;;;;;4.73;2.37;;;11.00;99.90;;;;;;4996502;28;20256;-77
2021/05/29 03:56:48;;;;;;;3.93;2.43;;;10.90;99.90;;;;;;4996926;28;20226;-77
2021/05/29 03:59:15;;;;;;;5.43;2.20;;;10.90;99.90;;;;;;4996801;28;20305;-77
2021/05/29 04:01:41;;;;;;;5.60;2.57;;;10.90;99.90;;;;;;4996524;28;20222;-77
2021/05/29 04:04:08;;;;;;;4.23;2.13;;;10.80;99.90;;;;;;4996601;28;20210;-77
2021/05/29 04:06:36;;;;;;;3.93;2.57;;;10.80;99.90;;;;;;4996850;28;20325;-77
2021/05/29 04:09:04;;;;;;;5.63;2.80;;;10.80;99.90;;;;;;4996746;28;20210;-73
2021/05/29 04:11:30;;;;;;;5.87;2.43;;;10.80;99.90;;;;;;4996362;28;20240;-77
2021/05/29 04:13:57;;;;;;;4.73;2.53;;;10.80;99.90;;;;;;4996452;28;20289;-76
2021/05/29 04:16:24;;;;;;;6.60;2.50;;;10.80;99.90;;;;;;4996342;28;20237;-77
2021/05/29 04:18:50;;;;;;;5.27;2.23;;;10.90;99.90;;;;;;4996200;28;20252;-77
2021/05/29 04:21:17;;;;;;;3.30;2.10;;;10.90;99.90;;;;;;4996560;28;20681;-77
2021/05/29 04:23:43;;;;;;;3.77;2.37;;;10.90;99.90;;;;;;4996547;28;20605;-77
2021/05/29 04:26:10;;;;;;;3.67;2.10;;;11.00;99.90;;;;;;4996160;28;20242;-77
2021/05/29 04:28:38;;;;;;;4.20;2.40;;;11.00;99.90;;;;;;4996042;28;20206;-76
2021/05/29 04:31:06;;;;;;;4.70;2.43;;;11.00;99.90;;;;;;4995847;28;20207;-77
2021/05/29 04:33:33;;;;;;;4.47;2.30;;;11.00;99.90;;;;;;4996384;28;20302;-77
2021/05/29 04:35:59;;;;;;;4.77;2.80;;;11.10;99.90;;;;;;4996029;28;20217;-77
2021/05/29 04:38:26;;;;;;;5.23;2.80;;;11.10;99.90;;;;;;4995974;28;20213;-77
2021/05/29 04:40:53;;;;;;;3.70;2.10;;;11.20;99.90;;;;;;4996050;28;20206;-77
2021/05/29 04:43:19;;;;;;;5.80;2.20;;;11.20;99.90;;;;;;4996042;28;20210;-77
2021/05/29 04:45:48;;;;;;;3.80;2.40;;;11.30;99.90;;;;;;4995544;28;20578;-77
2021/05/29 04:48:17;;;;;;;4.73;2.20;;;11.40;99.90;;;;;;4995718;28;20227;-77
2021/05/29 04:53:28;;;;;;;4.10;2.27;;;11.70;99.90;;;;;;4995608;28;20209;-77
2021/05/29 04:55:55;;;;;;;5.37;2.73;;;12.80;99.90;;;;;;4995846;28;20215;-77
2021/05/29 04:58:21;;;;;;;4.60;2.70;;;14.20;99.90;;;;;;4994191;28;20207;-76
2021/05/29 05:00:47;;;;;;;4.77;2.27;;;15.70;99.90;;;;;;4995192;28;20215;-75
2021/05/29 05:03:15;;;;;;;3.90;2.40;;;17.00;99.90;;;;;;4995474;28;20617;-76
2021/05/29 05:05:41;;;;;;;3.27;2.23;;;18.10;99.90;;;;;;4995059;28;20238;-76
2021/05/29 05:08:08;;;;;;;4.57;2.60;;;19.10;99.90;;;;;;4994971;28;20701;-76
2021/05/29 05:10:35;;;;;;;3.97;2.72;;;19.90;99.90;;;;;;4995173;28;20207;-76
2021/05/29 05:13:01;;;;;;;3.80;2.67;;;20.60;99.90;;;;;;4995087;28;20229;-76
2021/05/29 05:15:27;;;;;;;5.57;2.70;;;20.70;98.10;;;;;;4995311;28;20608;-76
2021/05/29 05:17:54;;;;;;;5.25;3.15;;;20.40;98.70;;;;;;4994951;28;20240;-75
2021/05/29 05:20:22;;;;;;;4.20;2.83;;;20.40;98.10;;;;;;4995084;28;20214;-76
2021/05/29 05:22:48;;;;;;;3.40;2.35;;;20.70;98.10;;;;;;4995216;28;20206;-74
2021/05/29 05:25:16;;;;;;;4.55;2.90;;;20.50;97.40;;;;;;4995044;28;20230;-75
2021/05/29 05:27:42;;;;;;;5.55;2.78;;;20.60;97.60;;;;;;4994941;28;20231;-75
2021/05/29 05:30:11;;;;;;;5.63;2.75;;;21.40;96.70;;;;;;4994846;28;20662;-74
2021/05/29 05:32:38;;;;;;;6.97;2.95;;;22.40;95.50;;;;;;4994931;28;20268;-74
2021/05/29 05:35:07;;;;;;;3.65;2.70;;;23.40;94.60;;;;;;4994971;28;20293;-76
2021/05/29 05:37:35;;;;;;;3.25;2.72;;;23.90;93.60;;;;;;4994736;28;20340;-75
2021/05/29 05:40:01;;;;;;;3.63;2.75;;;24.80;92.30;;;;;;4994701;28;20725;-75
2021/05/29 05:42:27;;;;;;;4.22;2.60;;;24.70;92.20;;;;;;4995311;28;20264;-76
2021/05/29 05:44:54;;;;;;;4.13;2.58;;;25.50;91.30;;;;;;4995216;28;20210;-76
2021/05/29 05:47:20;;;;;;;4.40;2.70;;;25.50;90.70;;;;;;4994871;28;20222;-77
2021/05/29 05:49:47;;;;;;;3.50;2.67;;;25.90;90.80;;;;;;4994964;28;20214;-76
2021/05/29 05:52:13;;;;;;;3.10;2.30;;;25.90;88.90;;;;;;4994790;28;20209;-76
2021/05/29 05:54:40;;;;;;;3.38;2.72;;;25.80;88.70;;;;;;4995154;28;20658;-78
2021/05/29 05:57:07;;;;;;;4.28;2.80;;;26.10;89.20;;;;;;4994613;28;20261;-77
2021/05/29 05:59:34;;;;;;;3.80;2.42;;;25.70;88.30;;;;;;4995004;28;20206;-76
2021/05/29 06:02:00;;;;;;;5.32;2.58;;;25.80;87.50;;;;;;4994455;28;20216;-76
2021/05/29 06:04:26;;;;;;;6.60;2.80;;;26.00;87.90;;;;;;4994579;28;20348;-77
2021/05/29 06:06:52;;;;;;;4.03;2.83;;;25.80;87.00;;;;;;4994086;28;20284;-77
2021/05/29 06:09:19;;;;;;;4.35;2.70;;;25.80;88.20;;;;;;4994196;28;20249;-75
2021/05/29 06:11:46;;;;;;;4.47;2.90;;;25.80;86.30;;;;;;4994436;28;20292;-77
2021/05/29 06:19:41;;;;;;;3.17;2.33;;;26.30;85.20;;;;;;4994136;28;20272;-75
2021/05/29 06:22:08;;;;;;;3.22;2.55;;;27.10;85.20;;;;;;4993790;28;20206;-77
2021/05/29 06:24:37;;;;;;;4.28;2.60;;;26.80;84.00;;;;;;4993977;28;20286;-77
2021/05/29 06:27:05;;;;;;;3.75;2.38;;;26.70;82.80;;;;;;4993839;28;20246;-77
2021/05/29 06:29:32;;;;;;;3.20;2.45;;;25.90;83.70;;;;;;4993965;28;20206;-76
2021/05/29 06:31:59;;;;;;;5.57;2.70;;;25.60;84.30;;;;;;4993666;28;20258;-76
2021/05/29 06:34:25;;;;;;;3.30;2.40;;;26.20;84.70;;;;;;4993920;28;20308;-77
2021/05/29 06:36:52;;;;;;;4.90;2.55;;;26.70;83.30;;;;;;4993898;28;20226;-76
2021/05/29 06:39:18;;;;;;;4.22;2.42;;;26.20;81.70;;;;;;4993929;28;20202;-77
2021/05/29 06:41:45;;;;;;;4.43;2.42;;;25.60;84.30;;;;;;4993845;28;20210;-76
2021/05/29 06:44:13;;;;;;;3.53;2.42;;;24.70;85.50;;;;;;4993726;28;20214;-75
2021/05/29 06:46:41;;;;;;;3.72;2.17;;;24.60;85.80;;;;;;4993025;28;20295;-71
2021/05/29 06:49:08;;;;;;;2.50;2.10;;;24.10;88.50;;;;;;4986732;28;20206;-71
2021/05/29 06:51:39;;;;;;;3.60;2.28;;;24.80;87.40;;;;;;4982084;28;20668;-72
2021/05/29 06:54:10;;;;;;;4.45;2.60;;;24.90;86.10;;;;;;4992090;28;20211;-73
2021/05/29 06:59:22;;;;;;;4.50;2.83;;;24.80;86.90;;;;;;4982075;28;20299;-73
2021/05/29 07:01:48;;;;;;;4.85;3.22;;;25.20;89.50;;;;;;4980446;28;20297;-72
2021/05/29 07:04:15;;;;;;;6.00;3.25;;;26.10;88.20;;;;;;4991787;28;20249;-72
2021/05/29 07:06:41;;;;;;;4.82;3.00;;;26.90;86.20;;;;;;4993280;28;20601;-69
2021/05/29 07:09:08;;;;;;;4.60;2.80;;;26.40;85.90;;;;;;4985203;28;20733;-73
2021/05/29 07:11:39;;;;;;;4.47;2.97;;;26.60;86.70;;;;;;4971735;28;20242;-72
2021/05/29 07:14:06;;;;;;;3.20;2.40;;;26.70;85.20;;;;;;4972244;28;20209;-71
2021/05/29 07:16:34;;;;;;;7.00;2.83;;;26.70;85.10;;;;;;4974566;28;20292;-73
2021/05/29 07:19:01;;;;;;;4.88;2.50;;;26.70;85.70;;;;;;4992958;28;20288;-72
2021/05/29 07:21:27;;;;;;;4.20;2.70;;;27.00;85.50;;;;;;4984011;28;20202;-72
2021/05/29 07:23:53;;;;;;;3.55;2.60;;;26.10;85.40;;;;;;4978050;28;20257;-72
2021/05/29 07:26:20;;;;;;;3.45;2.80;;;26.20;87.20;;;;;;4977083;28;20249;-71
2021/05/29 07:28:46;;;;;;;3.55;2.70;;;27.30;85.70;;;;;;4977882;28;20207;-72
2021/05/29 07:31:13;;;;;;;4.47;2.67;;;27.00;84.90;;;;;;4977834;28;20237;-71
2021/05/29 07:33:40;;;;;;;3.70;2.72;;;27.10;84.50;;;;;;4978138;28;20210;-71
2021/05/29 07:36:07;;;;;;;3.47;2.42;;;26.80;85.30;;;;;;4977853;28;20211;-71
2021/05/29 07:38:34;;;;;;;4.90;2.72;;;26.50;86.10;;;;;;4977806;28;20203;-71
2021/05/29 07:41:01;;;;;;;4.45;2.70;;;26.10;85.30;;;;;;4977805;28;20261;-72
2021/05/29 07:43:27;;;;;;;3.10;2.30;;;26.00;86.40;;;;;;4977570;28;20667;-70
2021/05/29 07:45:54;;;;;;;2.95;2.47;;;26.10;85.60;;;;;;4977653;28;20234;-71
2021/05/29 07:48:20;;;;;;;5.20;3.00;;;25.10;88.00;;;;;;4977765;28;20667;-72
2021/05/29 07:51:01;;;;;;;4.32;3.08;;;25.80;87.00;;;;;;4977592;28;20207;-72
2021/05/29 07:53:29;;;;;;;6.32;3.00;;;25.90;86.60;;;;;;4977552;28;20210;-71
2021/05/29 07:55:57;;;;;;;4.18;2.70;;;26.30;85.90;;;;;;4977852;28;20207;-71
2021/05/29 07:58:23;;;;;;;3.03;2.28;;;26.20;85.60;;;;;;4977728;28;20211;-71
2021/05/29 08:00:51;;;;;;;4.53;2.50;;;26.30;86.90;;;;;;4977384;28;20211;-71
2021/05/29 08:03:19;;;;;;;3.45;2.63;;;26.80;85.70;;;;;;4977427;28;20555;-72
2021/05/29 08:05:46;;;;;;;3.40;2.45;;;27.90;84.10;;;;;;4977409;28;20235;-71
2021/05/29 08:08:13;;;;;;;3.15;2.45;;;28.20;82.70;;;;;;4977634;28;20227;-70
2021/05/29 08:10:40;;;;;;;2.80;1.95;;;28.10;83.10;;;;;;4977455;28;20207;-71
2021/05/29 08:13:06;;;;;;;3.92;2.70;;;28.10;80.90;;;;;;4977489;28;20207;-70
2021/05/29 08:15:33;;;;;;;2.75;2.10;;;27.40;81.40;;;;;;4977212;28;20728;-71
2021/05/29 08:17:59;;;;;;;5.53;2.33;;;27.30;83.60;;;;;;4976673;28;20237;-71
2021/05/29 08:20:26;;;;;;;4.97;2.58;;;27.60;81.90;;;;;;4977010;28;20213;-71
2021/05/29 08:22:52;;;;;;;3.67;2.33;;;28.00;81.80;;;;;;4977184;28;20689;-71
2021/05/29 08:25:19;;;;;;;4.32;2.55;;;28.00;83.90;;;;;;4977182;28;20207;-71
2021/05/29 08:27:45;;;;;;;3.33;1.95;;;28.30;79.40;;;;;;4976933;28;20228;-71
2021/05/29 08:30:13;;;;;;;3.17;2.00;;;27.30;79.70;;;;;;4976901;28;20211;-70
2021/05/29 08:32:40;;;;;;;2.97;2.10;;;27.00;80.60;;;;;;4976628;28;20214;-70
2021/05/29 08:35:08;;;;;;;4.10;1.95;;;27.60;81.60;;;;;;4976678;28;20242;-71
2021/05/29 08:37:35;;;;;;;3.13;1.83;;;27.40;79.40;;;;;;4976677;28;20230;-71
2021/05/29 08:40:01;;;;;;;4.18;2.13;;;27.00;78.90;;;;;;4976537;28;20207;-72
2021/05/29 08:42:29;;;;;;;3.38;1.90;;;26.60;80.60;;;;;;4976963;28;20545;-71
2021/05/29 08:44:58;;;;;;;3.78;1.85;;;26.90;79.50;;;;;;4976621;28;20294;-71
2021/05/29 08:47:25;;;;;;;3.60;1.90;;;27.50;77.00;;;;;;4976238;28;20758;-71
2021/05/29 08:49:52;;;;;;;3.67;1.63;;;27.30;76.50;;;;;;4976566;28;20219;-71
2021/05/29 08:52:18;;;;;;;3.67;1.63;;;26.60;77.50;;;;;;4976846;28;20211;-71
2021/05/29 08:54:45;;;;;;;2.30;1.85;;;26.10;78.20;;;;;;4976559;28;20670;-72
2021/05/29 08:57:14;;;;;;;3.13;1.77;;;25.70;79.20;;;;;;4976453;28;20227;-71
2021/05/29 08:59:42;;;;;;;2.75;1.65;;;25.30;80.70;;;;;;4976406;28;20219;-70
2021/05/29 09:02:08;;;;;;;2.63;1.75;;;25.20;80.40;;;;;;4976154;28;20211;-71
2021/05/29 09:04:34;;;;;;;2.67;1.55;;;25.00;80.10;;;;;;4977011;28;20207;-69
2021/05/29 09:07:01;;;;;;;3.47;1.80;;;25.00;81.20;;;;;;4978187;28;20326;-70
2021/05/29 09:09:27;;;;;;;2.10;1.52;;;24.40;81.00;;;;;;4979996;28;20207;-71
2021/05/29 09:11:56;;;;;;;4.93;1.90;;;24.10;82.50;;;;;;4976858;28;20282;-70
2021/05/29 09:14:35;;;;;;;5.00;1.80;;;24.70;82.50;;;;;;4976995;28;20209;-71
2021/05/29 09:17:06;;;;;;;2.88;1.67;;;25.50;80.60;;;;;;4975634;28;20638;-72
2021/05/29 09:19:55;;;;;;;3.15;1.42;;;25.20;80.70;;;;;;4975930;28;20261;-71
2021/05/29 09:22:24;;;;;;;3.00;2.13;;;25.10;79.50;;;;;;4975988;28;20219;-71
2021/05/29 09:25:09;;;;;;;2.88;1.13;;;24.60;79.60;;;;;;4975777;28;20234;-72
2021/05/29 09:27:37;;;;;;;1.63;1.33;;;24.60;80.70;;;;;;4975488;28;20579;-72
2021/05/29 09:30:06;;;;;;;2.55;1.50;;;24.70;81.00;;;;;;4975961;28;20215;-72
2021/05/29 09:32:34;;;;;;;4.05;1.42;;;24.20;80.00;;;;;;4976006;28;20221;-69
2021/05/29 09:35:07;;;;;;;2.95;1.25;;;24.20;81.70;;;;;;4975750;28;20208;-72
2021/05/29 09:37:33;;;;;;;3.10;1.20;;;24.60;81.10;;;;;;4975649;28;20598;-72
2021/05/29 09:40:03;;;;;;;1.90;1.10;;;24.20;80.00;;;;;;4975967;28;20208;-72
2021/05/29 09:42:32;;;;;;;3.05;0.98;;;23.70;80.20;;;;;;4975676;28;20621;-72
2021/05/29 09:45:17;;;;;;;1.73;1.20;;;23.90;80.70;;;;;;4975384;28;20230;-73
2021/05/29 09:48:06;;;;;;;3.15;1.50;;;23.80;82.00;;;;;;4975383;28;20317;-72
2021/05/29 09:50:34;;;;;;;1.95;1.30;;;23.60;81.80;;;;;;4975351;28;20222;-72
2021/05/29 09:53:00;;;;;;;1.73;1.40;;;23.30;81.70;;;;;;4975472;28;20215;-72
2021/05/29 09:55:37;;;;;;;2.85;1.80;;;23.20;83.00;;;;;;4975381;28;20666;-73
2021/05/29 09:58:03;;;;;;;2.03;1.38;;;23.40;82.60;;;;;;4975212;28;20274;-71
2021/05/29 10:00:39;;;;;;;2.15;1.30;;;23.70;83.90;;;;;;4974925;28;20427;-70
2021/05/29 10:03:07;;;;;;;2.17;1.00;;;24.30;82.40;;;;;;4975418;28;20209;-69
2021/05/29 10:05:35;;;;;;;1.20;0.90;;;24.10;80.40;;;;;;4975219;28;20566;-70
2021/05/29 10:08:02;;;;;;;3.17;1.48;;;24.00;78.60;;;;;;4975200;28;20262;-71
2021/05/29 10:10:29;;;;;;;2.80;1.10;;;23.20;80.90;;;;;;4975101;28;20221;-72
2021/05/29 10:12:57;;;;;;;1.25;0.70;;;21.90;81.20;;;;;;4975314;28;20618;-72
2021/05/29 10:15:24;;;;;;;1.60;0.80;;;21.40;82.00;;;;;;4974973;28;20211;-69
2021/05/29 10:17:51;;;;;;;1.23;0.77;;;21.40;80.00;;;;;;4974947;28;20283;-71
2021/05/29 10:20:18;;;;;;;1.88;0.85;;;21.10;82.50;;;;;;4974970;28;20740;-70
2021/05/29 10:22:45;;;;;;;1.63;0.95;;;20.90;81.50;;;;;;4975182;28;20211;-70
2021/05/29 10:25:14;;;;;;;0.73;0.60;;;21.00;81.70;;;;;;4975146;28;20211;-71
2021/05/29 10:27:43;;;;;;;1.20;0.90;;;21.30;83.90;;;;;;4974640;28;20239;-71
2021/05/29 10:30:11;;;;;;;1.30;0.85;;;21.00;82.70;;;;;;4974894;28;20211;-71
2021/05/29 10:32:38;;;;;;;1.38;0.80;;;20.90;83.20;;;;;;4974812;28;20217;-71
2021/05/29 10:35:06;;;;;;;1.15;0.90;;;21.00;85.00;;;;;;4974896;28;20214;-71
2021/05/29 10:37:37;;;;;;;2.60;0.80;;;21.00;85.00;;;;;;4974516;28;20231;-72
2021/05/29 10:40:24;;;;;;;2.25;0.90;;;21.10;83.20;;;;;;4974476;28;20305;-72
2021/05/29 10:43:09;;;;;;;1.92;0.80;;;21.10;81.50;;;;;;4974723;28;20207;-71
2021/05/29 10:45:37;;;;;;;0.68;0.60;;;21.30;81.60;;;;;;4974411;28;20602;-70
2021/05/29 10:48:07;;;;;;;1.65;1.05;;;21.40;82.60;;;;;;4974565;28;20229;-71
2021/05/29 10:51:03;;;;;;;2.47;1.05;;;21.40;81.70;;;;;;4974416;28;20207;-71
2021/05/29 10:53:52;;;;;;;1.42;0.85;;;21.50;82.10;;;;;;4974675;28;20208;-72
2021/05/29 10:56:32;;;;;;;1.00;0.88;;;21.20;83.80;;;;;;4973501;28;20242;-70
2021/05/29 10:59:10;;;;;;;2.05;0.77;;;20.90;82.70;;;;;;4974899;28;20570;-70
2021/05/29 11:02:05;;;;;;;1.35;0.88;;;21.00;82.90;;;;;;4974038;28;20682;-71
2021/05/29 11:04:32;;;;;;;1.42;1.05;;;21.00;82.90;;;;;;4974632;28;20204;-70
2021/05/29 11:07:02;;;;;;;4.13;1.00;;;20.90;82.50;;;;;;4973910;28;20609;-71
2021/05/29 11:09:55;;;;;;;1.85;1.10;;;21.10;81.60;;;;;;4974108;28;20217;-70
2021/05/29 11:12:37;;;;;;;1.00;0.60;;;21.30;80.40;;;;;;4974229;28;20682;-71
2021/05/29 11:15:04;;;;;;;1.13;0.80;;;21.30;82.20;;;;;;4974021;28;20210;-71
2021/05/29 11:17:30;;;;;;;2.65;1.00;;;21.40;79.80;;;;;;4974054;28;20231;-71
2021/05/29 11:20:07;;;;;;;2.05;0.90;;;21.40;80.30;;;;;;4974183;28;20257;-70
2021/05/29 11:22:48;;;;;;;2.03;0.70;;;21.50;81.40;;;;;;4974302;28;20203;-69
2021/05/29 11:25:18;;;;;;;1.33;0.60;;;21.40;78.70;;;;;;4974142;28;20220;-70
2021/05/29 11:27:46;;;;;;;1.00;0.73;;;21.40;80.80;;;;;;4973953;28;20597;-71
2021/05/29 11:30:15;;;;;;;1.65;0.80;;;21.20;82.40;;;;;;4973727;28;20215;-71
2021/05/29 11:32:54;;;;;;;1.70;0.90;;;21.10;81.60;;;;;;4974038;28;20215;-71
2021/05/29 11:35:38;;;;;;;1.15;0.80;;;20.90;81.00;;;;;;4974060;28;20668;-71
2021/05/29 11:38:09;;;;;;;0.63;0.55;;;21.10;81.40;;;;;;4973876;28;20305;-71
2021/05/29 11:41:08;;;;;;;1.05;0.90;;;21.20;80.80;;;;;;4973749;28;20204;-71
2021/05/29 11:43:45;;;;;;;0.90;0.70;;;21.10;79.70;;;;;;4973778;28;20570;-70
2021/05/29 11:46:12;;;;;;;1.83;0.93;;;21.10;78.80;;;;;;4974238;28;20231;-72
2021/05/29 11:48:40;;;;;;;1.88;0.63;;;21.20;79.10;;;;;;4974101;28;20231;-70
2021/05/29 11:51:12;;;;;;;1.05;0.90;;;21.30;79.90;;;;;;4974253;28;20212;-70
2021/05/29 11:53:41;;;;;;;1.02;0.80;;;21.40;80.80;;;;;;4973931;28;20207;-70
2021/05/29 11:56:08;;;;;;;1.08;0.70;;;21.10;80.00;;;;;;4973745;28;20215;-70
2021/05/29 11:58:42;;;;;;;1.75;1.00;;;21.00;81.40;;;;;;4974003;28;20210;-70
2021/05/29 12:01:09;;;;;;;3.20;0.93;;;21.40;80.60;;;;;;4973815;28;20667;-70
2021/05/29 12:03:40;;;;;;;1.02;0.70;;;21.60;81.10;;;;;;4973749;28;20213;-70
2021/05/29 12:06:07;;;;;;;1.80;1.00;;;21.50;80.40;;;;;;4973699;28;20698;-71
2021/05/29 12:08:55;;;;;;;1.30;0.70;;;21.30;79.80;;;;;;4976005;28;20254;-71
2021/05/29 12:11:28;;;;;;;1.33;1.02;;;21.40;80.00;;;;;;4977346;28;20238;-70
2021/05/29 12:14:03;;;;;;;1.73;1.00;;;21.40;81.30;;;;;;4977017;28;20305;-71
2021/05/29 12:16:31;;;;;;;1.42;1.00;;;21.70;81.60;;;;;;4977159;28;20233;-70
2021/05/29 12:18:58;;;;;;;1.63;1.00;;;21.80;82.00;;;;;;4977322;28;20203;-69
2021/05/29 12:21:39;;;;;;;2.08;0.90;;;21.80;80.90;;;;;;4977256;28;20774;-70
2021/05/29 12:24:05;;;;;;;1.85;1.08;;;21.90;82.70;;;;;;4977228;28;20210;-70
2021/05/29 12:26:33;;;;;;;1.25;0.98;;;21.80;81.50;;;;;;4976982;28;20721;-70
2021/05/29 12:28:59;;;;;;;1.52;0.93;;;21.70;81.40;;;;;;4977040;28;20723;-70
2021/05/29 12:31:44;;;;;;;1.40;1.05;;;21.60;81.40;;;;;;4977070;28;20209;-70
2021/05/29 12:34:10;;;;;;;1.75;1.27;;;21.80;82.10;;;;;;4976767;28;20214;-69
2021/05/29 12:37:07;;;;;;;1.92;1.30;;;22.00;82.40;;;;;;4976741;28;20239;-69
2021/05/29 12:39:44;;;;;;;2.97;1.70;;;21.90;82.10;;;;;;4974877;28;20678;-70
2021/05/29 12:42:31;;;;;;;1.60;1.05;;;21.90;82.20;;;;;;4976648;28;20207;-69
2021/05/29 12:44:59;;;;;;;1.90;1.15;;;21.90;83.10;;;;;;4976555;28;20671;-70
2021/05/29 12:47:27;;;;;;;1.67;1.20;;;21.80;83.60;;;;;;4976380;28;20694;-70
2021/05/29 12:49:54;;;;;;;3.28;1.00;;;21.80;80.70;;;;;;4977031;28;20214;-71
2021/05/29 12:52:25;;;;;;;3.88;1.23;;;21.80;81.50;;;;;;4976443;28;20683;-70
2021/05/29 12:54:52;;;;;;;2.20;1.38;;;21.60;81.80;;;;;;4976412;28;20218;-70
2021/05/29 12:57:18;;;;;;;2.03;1.30;;;21.70;83.30;;;;;;4976426;28;20227;-71
2021/05/29 12:59:45;;;;;;;1.83;1.10;;;22.00;82.00;;;;;;4976276;28;20215;-70
2021/05/29 13:02:34;;;;;;;1.30;1.08;;;22.20;83.70;;;;;;4976541;28;20207;-70
2021/05/29 13:07:48;;;;;;;1.90;1.60;;;22.10;83.40;;;;;;4976137;28;20321;-69
2021/05/29 13:10:22;;;;;;;1.73;1.48;;;22.20;80.90;;;;;;4976529;28;20203;-69